Terminal Aerodrome Forecast
Issued by NWS Upton, NY

Home | Current Version | Previous Version | Text Only | Print | Product List | Glossary On
Versions: 1 2 3 4 5 6 7 8 9 10 11 12 13 14 15 16 17 18 19 20 21 22 23 24 25 26 27 28 29 30 31 32 33 34 35 36 37 38 39 40
000
FTUS41 KOKX 230535
TAFLGA
TAF
KLGA 230535Z 2306/2406 06021G30KT P6SM OVC014
     FM230800 06021G31KT P6SM OVC008
     FM231200 05022G35KT 5SM -RA BR OVC008
     FM231500 06026G44KT 2SM RA BR OVC007
     FM232100 06028G48KT 1SM +RA OVC005
     FM240100 05025G40KT 1 1/2SM +RA OVC005=

USA.gov is the U.S. government's official web portal to all federal, state and local government web resources and services.